Time;durP1;ratioP1;P1;durP2;ratioP2;P2;SDS_P1;SDS_P2;PMS_P1;PMS_P2;Temp;Humidity;BMP_temperature;BMP_pressure;BME280_temperature;BME280_humidity;BME280_pressure;Samples;Min_cycle;Max_cycle;Signal;HPM_P1;HPM_P2
2021/10/19 00:00:41;;;;;;;13.23;11.93;;;9.10;99.90;;;;;;4984726;28;20184;-56
2021/10/19 00:03:08;;;;;;;14.47;11.67;;;9.10;99.90;;;;;;4987013;28;20263;-55
2021/10/19 00:05:34;;;;;;;16.17;11.70;;;9.40;99.90;;;;;;4992100;28;20188;-55
2021/10/19 00:08:00;;;;;;;13.52;12.13;;;8.80;99.90;;;;;;4989291;28;20191;-55
2021/10/19 00:10:26;;;;;;;13.80;12.35;;;9.20;99.90;;;;;;4985902;28;20569;-56
2021/10/19 00:12:52;;;;;;;14.03;11.53;;;9.00;99.90;;;;;;4981714;28;20270;-56
2021/10/19 00:15:18;;;;;;;14.03;12.10;;;9.10;99.90;;;;;;4983778;28;20191;-56
2021/10/19 00:17:46;;;;;;;16.73;12.25;;;9.20;99.90;;;;;;4990082;28;20647;-57
2021/10/19 00:20:13;;;;;;;14.73;12.75;;;9.10;99.90;;;;;;4991097;28;20215;-56
2021/10/19 00:22:40;;;;;;;14.15;11.98;;;8.90;99.90;;;;;;4982066;28;20224;-56
2021/10/19 00:25:06;;;;;;;15.90;12.25;;;9.20;99.90;;;;;;4987685;28;20599;-56
2021/10/19 00:27:36;;;;;;;13.98;11.20;;;8.90;99.90;;;;;;4979677;28;20240;-56
2021/10/19 00:30:05;;;;;;;12.75;10.82;;;9.00;99.90;;;;;;4971722;28;20217;-55
2021/10/19 00:32:30;;;;;;;15.45;12.07;;;8.80;99.90;;;;;;4976289;28;20226;-57
2021/10/19 00:34:56;;;;;;;13.30;11.20;;;9.10;99.90;;;;;;4985091;28;20180;-55
2021/10/19 00:37:21;;;;;;;13.53;10.87;;;9.10;99.90;;;;;;4989868;28;20565;-56
2021/10/19 00:39:47;;;;;;;15.13;12.07;;;8.90;99.90;;;;;;4989417;28;20594;-55
2021/10/19 00:42:13;;;;;;;12.90;11.53;;;9.10;99.90;;;;;;4967026;28;20199;-56
2021/10/19 00:44:39;;;;;;;13.70;10.80;;;9.30;99.90;;;;;;4979932;28;20200;-56
2021/10/19 00:47:05;;;;;;;12.20;10.80;;;9.10;99.90;;;;;;4989747;28;20421;-56
2021/10/19 00:49:30;;;;;;;11.53;10.33;;;9.20;99.90;;;;;;4992137;28;20433;-57
2021/10/19 00:51:57;;;;;;;11.83;10.63;;;9.10;99.90;;;;;;4979390;28;20210;-56
2021/10/19 00:54:23;;;;;;;12.57;11.23;;;9.10;99.90;;;;;;4984420;28;20226;-56
2021/10/19 00:56:52;;;;;;;12.27;11.00;;;9.10;99.90;;;;;;4982968;28;20184;-56
2021/10/19 00:59:18;;;;;;;13.88;11.23;;;9.40;99.90;;;;;;4983964;28;20208;-56
2021/10/19 01:01:43;;;;;;;13.53;10.73;;;9.40;99.90;;;;;;4983951;28;20188;-56
2021/10/19 01:04:09;;;;;;;11.60;10.30;;;9.30;99.90;;;;;;4989862;28;20417;-57
2021/10/19 01:06:35;;;;;;;11.50;10.40;;;9.20;99.90;;;;;;4990567;28;20681;-55
2021/10/19 01:09:01;;;;;;;11.20;9.43;;;9.30;99.90;;;;;;4990970;28;20433;-57
2021/10/19 01:11:27;;;;;;;12.27;10.97;;;9.30;99.90;;;;;;4994492;28;20188;-55
2021/10/19 01:13:52;;;;;;;11.98;9.40;;;9.20;99.90;;;;;;4983154;28;20467;-55
2021/10/19 01:16:18;;;;;;;10.37;9.37;;;9.20;99.90;;;;;;4984572;28;20650;-55
2021/10/19 01:18:44;;;;;;;13.13;10.00;;;9.20;99.90;;;;;;4992970;28;20200;-56
2021/10/19 01:21:10;;;;;;;10.70;9.63;;;9.20;99.90;;;;;;4978362;28;20184;-55
2021/10/19 01:23:36;;;;;;;12.90;9.97;;;9.10;99.90;;;;;;4989608;28;20263;-56
2021/10/19 01:26:07;;;;;;;11.27;10.18;;;9.00;99.90;;;;;;4993370;28;20594;-56
2021/10/19 01:28:34;;;;;;;10.23;9.13;;;9.30;99.90;;;;;;4993403;28;20670;-56
2021/10/19 01:31:00;;;;;;;10.88;9.77;;;9.00;99.90;;;;;;4992370;28;20241;-56
2021/10/19 01:33:28;;;;;;;10.30;9.10;;;9.30;99.90;;;;;;4992890;28;20203;-55
2021/10/19 01:35:54;;;;;;;10.10;8.95;;;9.00;99.90;;;;;;4985460;28;20194;-56
2021/10/19 01:38:23;;;;;;;11.73;9.18;;;9.20;99.90;;;;;;4993547;28;20227;-56
2021/10/19 01:40:50;;;;;;;9.55;8.60;;;9.10;99.90;;;;;;4991646;28;20198;-55
2021/10/19 01:43:21;;;;;;;10.77;9.45;;;9.30;99.90;;;;;;4994037;28;20198;-56
2021/10/19 01:45:58;;;;;;;10.20;9.10;;;9.20;99.90;;;;;;4989595;28;20286;-55
2021/10/19 01:48:25;;;;;;;9.65;8.75;;;9.30;99.90;;;;;;4985271;28;20267;-56
2021/10/19 01:50:51;;;;;;;10.05;8.45;;;9.30;99.90;;;;;;4992947;28;20282;-55
2021/10/19 01:53:17;;;;;;;10.68;9.57;;;9.20;99.90;;;;;;4994102;28;20220;-54
2021/10/19 01:55:43;;;;;;;10.57;8.80;;;9.50;99.90;;;;;;4993582;28;20192;-56
2021/10/19 01:58:12;;;;;;;10.20;8.88;;;9.50;99.90;;;;;;4986160;28;20857;-57
2021/10/19 02:00:39;;;;;;;9.30;8.40;;;9.30;99.90;;;;;;4992379;28;20551;-56
2021/10/19 02:03:06;;;;;;;9.20;8.30;;;9.30;99.90;;;;;;4983248;28;20193;-56
2021/10/19 02:05:32;;;;;;;9.38;8.48;;;9.70;99.90;;;;;;4989961;28;20770;-56
2021/10/19 02:07:58;;;;;;;9.47;8.47;;;9.60;99.90;;;;;;4986008;28;20291;-56
2021/10/19 02:10:24;;;;;;;8.88;8.07;;;9.60;99.90;;;;;;4992846;28;20250;-55
2021/10/19 02:12:49;;;;;;;9.50;8.50;;;9.70;99.90;;;;;;4982666;28;20628;-57
2021/10/19 02:15:15;;;;;;;9.63;8.63;;;9.60;99.90;;;;;;4979498;28;20310;-57
2021/10/19 02:17:41;;;;;;;8.97;8.07;;;9.90;99.90;;;;;;4992912;28;20267;-56
2021/10/19 02:20:08;;;;;;;8.90;8.00;;;9.50;99.90;;;;;;4992908;28;20465;-56
2021/10/19 02:22:34;;;;;;;16.05;11.98;;;9.70;99.90;;;;;;4992757;28;20270;-57
2021/10/19 02:25:00;;;;;;;11.97;10.77;;;9.70;99.90;;;;;;4987102;28;20290;-56
2021/10/19 02:27:27;;;;;;;13.00;10.85;;;10.10;99.90;;;;;;4985244;28;20204;-56
2021/10/19 02:29:52;;;;;;;12.07;10.88;;;9.90;99.90;;;;;;4990778;28;20204;-56
2021/10/19 02:32:18;;;;;;;12.83;10.20;;;9.70;99.90;;;;;;4988631;28;20192;-55
2021/10/19 02:34:44;;;;;;;11.17;10.07;;;9.50;99.90;;;;;;4982974;28;20195;-55
2021/10/19 02:37:10;;;;;;;11.50;10.40;;;9.50;99.90;;;;;;4986502;28;20417;-55
2021/10/19 02:39:36;;;;;;;10.67;9.67;;;9.70;99.90;;;;;;4987734;28;20219;-55
2021/10/19 02:42:01;;;;;;;11.23;9.63;;;9.70;99.90;;;;;;4984986;28;20283;-55
2021/10/19 02:44:27;;;;;;;11.00;9.83;;;9.90;99.90;;;;;;4989737;28;20227;-55
2021/10/19 02:46:52;;;;;;;12.50;10.73;;;9.70;99.90;;;;;;4986983;28;20640;-55
2021/10/19 02:49:18;;;;;;;11.83;9.90;;;10.00;99.90;;;;;;4994125;28;20715;-56
2021/10/19 02:51:44;;;;;;;12.73;10.33;;;9.90;99.90;;;;;;4992652;28;20254;-55
2021/10/19 02:54:12;;;;;;;11.17;9.97;;;10.10;99.90;;;;;;4989287;28;20227;-56
2021/10/19 02:56:39;;;;;;;11.18;9.80;;;10.10;99.90;;;;;;4989148;28;20677;-55
2021/10/19 02:59:05;;;;;;;10.40;9.40;;;9.90;99.90;;;;;;4976181;28;20207;-56
2021/10/19 03:01:32;;;;;;;13.07;8.95;;;9.90;99.90;;;;;;4980321;28;20549;-55
2021/10/19 03:03:57;;;;;;;11.48;9.90;;;10.00;99.90;;;;;;4989033;28;20192;-55
2021/10/19 03:06:23;;;;;;;10.03;9.03;;;10.10;99.90;;;;;;4991740;28;20195;-56
2021/10/19 03:08:49;;;;;;;15.20;9.30;;;10.00;99.90;;;;;;4988039;28;20235;-54
2021/10/19 03:11:14;;;;;;;10.80;9.70;;;9.80;99.90;;;;;;4992404;28;20211;-55
2021/10/19 03:13:40;;;;;;;10.57;9.50;;;9.90;99.90;;;;;;4982673;28;20208;-57
2021/10/19 03:16:06;;;;;;;10.80;9.50;;;9.80;99.90;;;;;;4988944;28;20184;-56
2021/10/19 03:18:31;;;;;;;11.30;10.10;;;9.90;99.90;;;;;;4992389;28;20788;-56
2021/10/19 03:20:57;;;;;;;11.33;10.13;;;9.90;99.90;;;;;;4992097;28;20195;-56
2021/10/19 03:23:23;;;;;;;12.23;10.10;;;10.10;99.90;;;;;;4988769;28;20247;-56
2021/10/19 03:25:49;;;;;;;10.77;9.67;;;10.20;99.90;;;;;;4989532;28;20864;-55
2021/10/19 03:28:15;;;;;;;9.67;8.47;;;10.30;99.90;;;;;;4991116;28;20187;-55
2021/10/19 03:30:40;;;;;;;9.77;8.83;;;10.40;99.90;;;;;;4989553;28;20274;-55
2021/10/19 03:33:06;;;;;;;11.90;9.20;;;10.30;99.90;;;;;;4990810;28;20911;-55
2021/10/19 03:35:32;;;;;;;10.70;8.63;;;10.40;99.90;;;;;;4990730;28;20191;-55
2021/10/19 03:37:58;;;;;;;9.77;8.77;;;10.40;99.90;;;;;;4990856;28;20203;-56
2021/10/19 03:40:23;;;;;;;10.20;9.30;;;10.70;99.90;;;;;;4990284;28;20212;-55
2021/10/19 03:42:49;;;;;;;9.73;8.83;;;10.70;99.90;;;;;;4991694;28;20214;-56
2021/10/19 03:45:16;;;;;;;10.67;9.57;;;10.50;99.90;;;;;;4990370;28;20688;-55
2021/10/19 03:47:42;;;;;;;12.15;10.93;;;10.40;99.90;;;;;;4987898;28;20721;-56
2021/10/19 03:50:09;;;;;;;12.40;11.03;;;10.60;99.90;;;;;;4979452;28;20230;-55
2021/10/19 03:52:35;;;;;;;11.40;9.75;;;10.70;99.90;;;;;;4986255;28;20445;-56
2021/10/19 03:55:01;;;;;;;11.50;10.27;;;10.80;99.90;;;;;;4985089;28;20188;-56
2021/10/19 03:57:26;;;;;;;11.10;9.80;;;10.80;99.90;;;;;;4987462;28;20181;-56
2021/10/19 03:59:52;;;;;;;12.90;11.60;;;10.80;99.90;;;;;;4972764;28;20208;-55
2021/10/19 04:02:17;;;;;;;11.47;10.30;;;10.70;99.90;;;;;;4980561;28;20210;-56
2021/10/19 04:04:43;;;;;;;11.13;9.90;;;10.70;99.90;;;;;;4991201;28;20223;-56
2021/10/19 04:07:11;;;;;;;10.87;9.83;;;10.80;99.90;;;;;;4984945;28;20696;-55
2021/10/19 04:09:36;;;;;;;11.95;10.52;;;10.60;99.90;;;;;;4989626;28;20532;-55
2021/10/19 04:12:02;;;;;;;10.00;8.60;;;10.80;99.90;;;;;;4991211;28;20290;-55
2021/10/19 04:14:28;;;;;;;10.37;8.90;;;10.70;99.90;;;;;;4982290;28;20622;-55
2021/10/19 04:16:54;;;;;;;9.47;8.13;;;10.90;99.90;;;;;;4990397;28;20194;-56
2021/10/19 04:19:19;;;;;;;7.57;6.87;;;10.90;99.90;;;;;;4987553;28;20215;-55
2021/10/19 04:21:49;;;;;;;9.10;8.20;;;11.00;99.90;;;;;;4982460;28;20188;-55
2021/10/19 04:24:15;;;;;;;9.65;8.70;;;10.80;99.90;;;;;;4980049;28;20659;-55
2021/10/19 04:26:42;;;;;;;12.30;10.00;;;10.70;99.90;;;;;;4986614;28;20409;-56
2021/10/19 04:29:09;;;;;;;12.77;10.45;;;11.00;99.90;;;;;;4978976;28;20482;-56
2021/10/19 04:31:37;;;;;;;10.73;9.73;;;10.80;99.90;;;;;;4986999;28;20199;-55
2021/10/19 04:34:03;;;;;;;11.63;10.43;;;10.80;99.90;;;;;;4986895;28;20207;-56
2021/10/19 04:36:29;;;;;;;10.63;9.52;;;10.60;99.90;;;;;;4983787;28;20744;-56
2021/10/19 04:38:55;;;;;;;11.70;10.50;;;11.00;99.90;;;;;;4988129;28;20276;-56
2021/10/19 04:41:20;;;;;;;12.17;10.07;;;11.00;99.90;;;;;;4986894;28;20563;-56
2021/10/19 04:43:46;;;;;;;12.43;10.20;;;11.10;99.90;;;;;;4994517;28;20198;-56
2021/10/19 04:46:12;;;;;;;11.73;10.53;;;10.90;99.90;;;;;;4989746;28;20400;-56
2021/10/19 04:48:37;;;;;;;13.40;10.47;;;10.90;99.90;;;;;;4983294;28;20263;-55
2021/10/19 04:51:04;;;;;;;15.33;9.70;;;10.90;99.90;;;;;;4993224;28;20188;-56
2021/10/19 04:53:31;;;;;;;11.18;9.95;;;10.90;99.90;;;;;;4980582;28;20587;-56
2021/10/19 04:55:57;;;;;;;11.77;10.55;;;11.10;99.90;;;;;;4979190;28;20655;-56
2021/10/19 04:58:23;;;;;;;12.70;10.00;;;11.20;99.90;;;;;;4985543;28;20207;-56
2021/10/19 05:00:50;;;;;;;11.77;10.33;;;11.20;99.90;;;;;;4991610;28;20216;-56
2021/10/19 05:03:16;;;;;;;10.88;9.77;;;11.00;99.90;;;;;;4990064;28;20879;-56
2021/10/19 05:05:45;;;;;;;11.52;10.43;;;11.20;99.90;;;;;;4989024;28;20266;-57
2021/10/19 05:08:11;;;;;;;11.77;10.30;;;11.20;99.90;;;;;;4985970;28;20187;-56
2021/10/19 05:10:37;;;;;;;11.50;9.70;;;11.20;99.90;;;;;;4985045;28;20220;-56
2021/10/19 05:13:02;;;;;;;11.87;9.90;;;11.40;99.90;;;;;;4981762;28;20222;-55
2021/10/19 05:15:28;;;;;;;13.55;10.40;;;11.10;99.90;;;;;;4984577;28;20435;-55
2021/10/19 05:17:54;;;;;;;12.30;11.00;;;11.20;99.90;;;;;;4991072;28;20668;-55
2021/10/19 05:20:20;;;;;;;13.13;11.33;;;11.20;99.90;;;;;;4992399;28;20536;-55
2021/10/19 05:22:46;;;;;;;11.67;10.50;;;11.20;99.90;;;;;;4992115;28;20855;-55
2021/10/19 05:25:12;;;;;;;12.40;10.13;;;11.50;99.90;;;;;;4988246;28;20184;-56
2021/10/19 05:27:41;;;;;;;11.43;10.32;;;11.10;99.90;;;;;;4988343;28;20191;-56
2021/10/19 05:30:08;;;;;;;15.30;10.60;;;11.10;99.90;;;;;;4980624;28;20223;-55
2021/10/19 05:32:34;;;;;;;11.90;10.70;;;11.20;99.90;;;;;;4989584;28;20233;-56
2021/10/19 05:35:00;;;;;;;12.07;10.07;;;11.20;99.90;;;;;;4991263;28;20226;-56
2021/10/19 05:37:26;;;;;;;14.87;10.57;;;11.10;99.90;;;;;;4987944;28;20682;-56
2021/10/19 05:39:51;;;;;;;11.23;9.93;;;11.40;99.90;;;;;;4982780;28;20655;-56
2021/10/19 05:42:17;;;;;;;12.97;11.10;;;11.30;99.90;;;;;;4985545;28;20188;-56
2021/10/19 05:44:43;;;;;;;12.90;10.97;;;11.40;99.90;;;;;;4989826;28;20279;-58
2021/10/19 05:47:08;;;;;;;11.87;10.67;;;11.30;99.90;;;;;;4989964;28;20278;-59
2021/10/19 05:49:34;;;;;;;15.07;11.37;;;11.60;99.90;;;;;;4981806;28;20209;-59
2021/10/19 05:52:00;;;;;;;12.88;10.80;;;11.30;99.90;;;;;;4985776;28;20189;-58
2021/10/19 05:54:26;;;;;;;12.47;11.03;;;11.50;99.90;;;;;;4990491;28;20239;-59
2021/10/19 05:56:53;;;;;;;11.85;10.65;;;11.50;99.90;;;;;;4985755;28;20981;-57
2021/10/19 05:59:20;;;;;;;11.80;10.60;;;11.80;99.90;;;;;;4983010;28;20220;-57
2021/10/19 06:01:46;;;;;;;11.93;10.55;;;11.10;99.90;;;;;;4982118;28;20216;-57
2021/10/19 06:04:12;;;;;;;13.27;11.00;;;11.40;99.90;;;;;;4984346;28;20185;-57
2021/10/19 06:06:38;;;;;;;12.53;10.63;;;11.60;99.90;;;;;;4989894;28;20197;-56
2021/10/19 06:09:04;;;;;;;22.13;16.40;;;11.60;99.90;;;;;;4991305;28;20584;-57
2021/10/19 06:11:30;;;;;;;12.63;10.95;;;11.40;99.90;;;;;;4988924;28;20187;-56
2021/10/19 06:13:55;;;;;;;13.53;11.27;;;11.60;99.90;;;;;;4981007;28;20212;-56
2021/10/19 06:16:21;;;;;;;15.87;11.03;;;11.70;99.90;;;;;;4983161;28;20189;-57
2021/10/19 06:18:47;;;;;;;11.50;10.30;;;11.80;99.90;;;;;;4989124;28;20503;-56
2021/10/19 06:21:13;;;;;;;11.90;10.77;;;11.60;99.90;;;;;;4990046;28;20302;-55
2021/10/19 06:23:39;;;;;;;13.60;11.45;;;11.40;99.90;;;;;;4986695;28;20694;-57
2021/10/19 06:26:05;;;;;;;11.30;10.20;;;11.50;99.90;;;;;;4984903;28;20203;-56
2021/10/19 06:28:31;;;;;;;11.60;10.40;;;11.40;99.90;;;;;;4980327;28;20502;-56
2021/10/19 06:30:57;;;;;;;10.88;9.13;;;11.70;99.90;;;;;;4978150;28;20737;-56
2021/10/19 06:33:22;;;;;;;10.60;9.10;;;11.50;99.90;;;;;;4984066;28;20217;-55
2021/10/19 06:35:48;;;;;;;9.30;8.40;;;11.60;99.90;;;;;;4992173;28;20462;-56
2021/10/19 06:38:14;;;;;;;8.90;7.90;;;11.90;99.90;;;;;;4989585;28;20208;-56
2021/10/19 06:40:40;;;;;;;9.40;8.47;;;11.80;99.90;;;;;;4986491;28;20553;-56
2021/10/19 06:43:05;;;;;;;9.13;7.20;;;12.10;99.90;;;;;;4985652;28;20231;-57
2021/10/19 06:45:32;;;;;;;10.40;9.30;;;12.10;99.90;;;;;;4985278;28;20201;-57
2021/10/19 06:47:58;;;;;;;9.30;7.28;;;12.20;99.90;;;;;;4982611;28;20197;-56
2021/10/19 06:50:24;;;;;;;10.20;8.23;;;12.50;99.90;;;;;;4981931;28;20582;-56
2021/10/19 06:52:49;;;;;;;8.93;7.60;;;12.50;99.90;;;;;;4991753;28;20221;-55
2021/10/19 06:55:16;;;;;;;12.60;9.87;;;12.50;99.90;;;;;;4980804;28;20442;-57
2021/10/19 06:57:43;;;;;;;11.82;10.57;;;12.80;99.90;;;;;;4979827;28;20647;-57
2021/10/19 07:00:11;;;;;;;12.60;9.80;;;12.70;99.90;;;;;;4980660;28;20339;-56
2021/10/19 07:02:37;;;;;;;12.73;11.18;;;12.90;99.90;;;;;;4989022;28;20280;-55
2021/10/19 07:05:03;;;;;;;12.38;11.13;;;12.90;99.90;;;;;;4990484;28;20667;-55
2021/10/19 07:07:29;;;;;;;14.00;10.82;;;12.80;99.90;;;;;;4990269;28;20199;-54
2021/10/19 07:09:55;;;;;;;12.23;10.90;;;12.90;99.90;;;;;;4986983;28;20207;-59
2021/10/19 07:12:21;;;;;;;13.10;9.73;;;12.80;99.90;;;;;;4983191;28;20186;-56
2021/10/19 07:14:48;;;;;;;15.25;10.82;;;12.60;99.90;;;;;;4985889;28;20187;-56
2021/10/19 07:17:14;;;;;;;13.45;11.05;;;12.70;99.90;;;;;;4990971;28;20175;-56
2021/10/19 07:19:40;;;;;;;11.63;10.40;;;12.60;99.90;;;;;;4986214;28;20215;-56
2021/10/19 07:22:06;;;;;;;12.77;11.13;;;12.80;99.90;;;;;;4989975;28;20483;-57
2021/10/19 07:24:32;;;;;;;12.95;10.57;;;12.60;99.90;;;;;;4981909;28;20260;-57
2021/10/19 07:26:57;;;;;;;13.67;10.97;;;12.80;99.90;;;;;;4980817;28;20632;-56
2021/10/19 07:29:23;;;;;;;14.63;10.67;;;12.90;99.90;;;;;;4985802;28;20229;-57
2021/10/19 07:31:49;;;;;;;10.93;9.93;;;12.70;99.90;;;;;;4975257;28;20234;-57
2021/10/19 07:34:14;;;;;;;10.83;9.70;;;12.70;99.90;;;;;;4990170;28;20267;-58
2021/10/19 07:36:40;;;;;;;15.07;10.63;;;12.70;99.90;;;;;;4989466;28;20203;-57
2021/10/19 07:39:06;;;;;;;12.53;11.23;;;12.80;99.90;;;;;;4988958;28;20226;-56
2021/10/19 07:41:34;;;;;;;11.93;10.65;;;12.90;99.90;;;;;;4973001;28;20520;-56
2021/10/19 07:44:00;;;;;;;14.38;9.90;;;13.20;99.90;;;;;;4985026;28;20183;-56
2021/10/19 07:46:26;;;;;;;14.30;10.50;;;13.10;99.90;;;;;;4980446;28;20242;-55
2021/10/19 07:48:51;;;;;;;14.33;10.53;;;13.00;99.90;;;;;;4986713;28;20885;-56
2021/10/19 07:51:17;;;;;;;13.07;10.60;;;13.20;99.90;;;;;;4980432;28;20197;-57
2021/10/19 07:53:43;;;;;;;10.87;9.57;;;13.00;99.90;;;;;;4982545;28;20202;-56
2021/10/19 07:56:08;;;;;;;11.13;10.00;;;13.40;99.90;;;;;;4989474;28;20187;-57
2021/10/19 07:58:34;;;;;;;11.97;10.77;;;13.40;99.90;;;;;;4982979;28;20397;-56
2021/10/19 08:00:59;;;;;;;14.17;11.20;;;13.80;99.90;;;;;;4984286;28;20279;-57
2021/10/19 08:03:25;;;;;;;12.30;10.50;;;13.60;99.90;;;;;;4979400;28;20199;-57
2021/10/19 08:05:51;;;;;;;15.10;12.10;;;13.70;99.90;;;;;;4987379;28;20596;-57
2021/10/19 08:08:17;;;;;;;16.27;11.20;;;13.60;99.90;;;;;;4980606;28;20713;-58
2021/10/19 08:10:44;;;;;;;14.45;10.05;;;13.80;99.90;;;;;;4988992;28;20202;-57
2021/10/19 08:13:11;;;;;;;10.98;9.88;;;13.60;99.90;;;;;;4986795;28;20218;-58
2021/10/19 08:15:40;;;;;;;11.82;10.60;;;13.60;99.90;;;;;;4986607;28;20321;-57
2021/10/19 08:18:06;;;;;;;11.88;10.32;;;13.50;99.90;;;;;;4991175;28;20721;-56
2021/10/19 08:20:32;;;;;;;11.63;10.52;;;13.70;99.90;;;;;;4987954;28;20288;-57
2021/10/19 08:22:58;;;;;;;12.20;10.13;;;13.70;99.90;;;;;;4979704;28;20219;-57
2021/10/19 08:25:24;;;;;;;11.77;9.77;;;13.60;99.90;;;;;;4983887;28;20450;-56
2021/10/19 08:27:50;;;;;;;15.67;10.63;;;13.80;99.90;;;;;;4982261;28;20203;-56
2021/10/19 08:30:20;;;;;;;10.90;9.57;;;13.40;99.90;;;;;;4987108;28;20688;-58
2021/10/19 08:32:47;;;;;;;13.57;11.57;;;13.40;99.90;;;;;;4977838;28;20263;-55
2021/10/19 08:35:14;;;;;;;11.48;10.27;;;13.60;99.90;;;;;;4986147;28;20183;-55
2021/10/19 08:37:41;;;;;;;13.82;10.05;;;13.70;99.90;;;;;;4988498;28;20245;-55
2021/10/19 08:40:08;;;;;;;12.05;10.85;;;13.80;99.90;;;;;;4988304;28;20203;-55
2021/10/19 08:42:41;;;;;;;12.52;10.68;;;14.00;99.90;;;;;;4987645;28;20179;-56
2021/10/19 08:45:08;;;;;;;11.48;9.50;;;14.30;99.90;;;;;;4987312;28;21128;-56
2021/10/19 08:47:34;;;;;;;11.32;9.98;;;14.30;99.90;;;;;;4990064;28;20183;-57
2021/10/19 08:50:00;;;;;;;12.38;11.13;;;14.50;99.90;;;;;;4987363;28;20248;-58
2021/10/19 08:52:25;;;;;;;15.73;11.80;;;14.50;99.90;;;;;;4990088;28;20532;-57
2021/10/19 08:54:51;;;;;;;14.60;11.23;;;14.20;99.90;;;;;;4987424;28;20526;-57
2021/10/19 08:57:17;;;;;;;12.43;11.23;;;14.00;99.90;;;;;;4981442;28;20561;-56
2021/10/19 08:59:44;;;;;;;12.70;11.13;;;14.00;99.90;;;;;;4976072;28;20231;-56
2021/10/19 09:02:11;;;;;;;13.02;10.40;;;13.90;99.90;;;;;;4979490;28;20231;-56
2021/10/19 09:04:37;;;;;;;13.07;11.60;;;13.90;99.90;;;;;;4977360;28;20194;-57
2021/10/19 09:07:02;;;;;;;12.60;11.30;;;13.80;99.90;;;;;;4981956;28;20192;-57
2021/10/19 09:09:29;;;;;;;11.53;10.33;;;13.70;99.90;;;;;;4982553;28;20462;-57
2021/10/19 09:11:56;;;;;;;12.90;11.13;;;13.60;99.90;;;;;;4985264;28;20188;-57
2021/10/19 09:14:32;;;;;;;12.00;10.80;;;13.60;99.90;;;;;;4979936;28;20233;-58
2021/10/19 09:17:00;;;;;;;11.88;10.73;;;13.70;99.90;;;;;;4983498;28;20182;-57
2021/10/19 09:19:27;;;;;;;13.75;12.45;;;13.70;99.90;;;;;;4981972;28;20203;-58
2021/10/19 09:22:02;;;;;;;14.63;12.18;;;13.90;99.90;;;;;;4987584;28;20182;-58
2021/10/19 09:24:30;;;;;;;11.73;10.25;;;13.80;99.90;;;;;;4984845;28;20558;-58
2021/10/19 09:27:02;;;;;;;9.55;7.35;;;13.80;99.90;;;;;;4980624;28;20207;-59
2021/10/19 09:29:29;;;;;;;6.75;6.15;;;13.70;99.90;;;;;;4991329;28;20203;-58
2021/10/19 09:31:59;;;;;;;4.70;4.28;;;14.00;99.90;;;;;;4978259;28;20184;-62
2021/10/19 09:34:32;;;;;;;6.45;5.88;;;14.10;99.90;;;;;;4987026;28;20207;-57
2021/10/19 09:36:58;;;;;;;6.43;5.70;;;14.10;99.90;;;;;;4992463;28;20199;-56
2021/10/19 09:39:40;;;;;;;5.88;5.32;;;14.60;99.90;;;;;;4983610;28;20199;-57
2021/10/19 09:42:08;;;;;;;8.48;5.00;;;14.60;99.90;;;;;;4989864;28;20187;-58
2021/10/19 09:44:35;;;;;;;5.20;4.43;;;14.80;99.90;;;;;;4992532;28;20548;-57
2021/10/19 09:47:01;;;;;;;4.55;4.15;;;14.90;99.90;;;;;;4979605;28;20212;-57
2021/10/19 09:49:29;;;;;;;4.75;4.05;;;15.00;99.90;;;;;;4990870;28;20715;-57
2021/10/19 09:51:57;;;;;;;7.70;5.38;;;14.90;99.90;;;;;;4982501;28;20202;-58
2021/10/19 09:54:27;;;;;;;4.90;4.38;;;15.20;99.90;;;;;;4979658;28;20216;-57
2021/10/19 09:56:57;;;;;;;7.80;4.75;;;15.30;99.90;;;;;;4979826;28;20664;-59
2021/10/19 09:59:23;;;;;;;4.32;3.92;;;15.00;99.90;;;;;;4979872;28;20203;-57
2021/10/19 10:01:49;;;;;;;6.30;3.70;;;15.10;99.90;;;;;;4986646;28;20183;-56
2021/10/19 10:04:17;;;;;;;5.43;4.03;;;15.50;99.90;;;;;;4987002;28;20194;-56
2021/10/19 10:06:43;;;;;;;5.43;3.85;;;15.50;99.90;;;;;;4980884;28;20505;-57
2021/10/19 10:09:10;;;;;;;4.72;4.22;;;15.50;99.90;;;;;;4978034;28;20252;-57
2021/10/19 10:11:40;;;;;;;4.63;3.42;;;15.30;99.90;;;;;;4977780;28;20275;-57
2021/10/19 10:14:07;;;;;;;4.00;3.70;;;15.60;99.90;;;;;;4986003;28;20215;-58
2021/10/19 10:16:44;;;;;;;5.65;3.70;;;15.80;99.90;;;;;;4974316;28;20191;-58
2021/10/19 10:19:14;;;;;;;3.80;3.50;;;15.50;99.90;;;;;;4984538;28;20235;-57
2021/10/19 10:21:51;;;;;;;4.50;3.55;;;15.80;99.90;;;;;;4985085;28;20192;-56
2021/10/19 10:24:31;;;;;;;3.42;3.13;;;15.70;99.90;;;;;;4977332;28;20192;-56
2021/10/19 10:27:15;;;;;;;3.45;3.10;;;15.80;99.90;;;;;;4987917;28;20262;-56
2021/10/19 10:29:47;;;;;;;5.25;3.80;;;15.70;99.90;;;;;;4981457;28;20295;-56
2021/10/19 10:32:33;;;;;;;5.10;3.40;;;15.90;99.90;;;;;;4983251;28;20188;-57
2021/10/19 10:35:02;;;;;;;4.35;3.70;;;15.70;99.90;;;;;;4986798;28;20222;-58
2021/10/19 10:37:35;;;;;;;3.72;3.38;;;15.90;99.90;;;;;;4988154;28;20680;-57
2021/10/19 10:40:01;;;;;;;3.53;3.20;;;15.50;99.90;;;;;;4982434;28;20249;-57
2021/10/19 10:42:35;;;;;;;3.70;3.40;;;15.70;99.90;;;;;;4992466;28;20184;-57
2021/10/19 10:45:00;;;;;;;4.18;3.03;;;15.80;99.90;;;;;;4989864;28;20447;-57
2021/10/19 10:47:26;;;;;;;3.40;3.10;;;15.80;99.90;;;;;;4981174;28;20192;-57
2021/10/19 10:49:52;;;;;;;4.20;3.80;;;16.00;99.90;;;;;;4989872;28;20214;-58
2021/10/19 10:52:18;;;;;;;3.38;3.08;;;16.00;99.90;;;;;;4986629;28;20187;-57
2021/10/19 10:54:55;;;;;;;3.37;3.10;;;16.10;99.90;;;;;;4990605;28;20560;-58
2021/10/19 10:57:21;;;;;;;3.72;3.35;;;16.00;99.90;;;;;;4973672;28;20187;-55
2021/10/19 10:59:54;;;;;;;3.87;3.57;;;16.00;99.90;;;;;;4981284;28;20204;-56
2021/10/19 11:02:23;;;;;;;4.57;3.78;;;16.00;99.90;;;;;;4980231;28;20447;-56
2021/10/19 11:04:51;;;;;;;3.35;3.05;;;16.20;99.90;;;;;;4973209;28;20226;-56
2021/10/19 11:07:33;;;;;;;4.22;3.92;;;16.20;99.90;;;;;;4964307;28;20207;-58
2021/10/19 11:10:13;;;;;;;4.60;4.20;;;16.10;99.90;;;;;;4984457;28;20351;-58
2021/10/19 11:12:41;;;;;;;4.60;4.20;;;15.80;99.90;;;;;;4984655;28;20283;-58
2021/10/19 11:15:17;;;;;;;4.00;3.33;;;16.00;99.90;;;;;;4982650;28;20203;-56
2021/10/19 11:17:53;;;;;;;3.72;3.25;;;16.00;99.90;;;;;;4990941;28;20183;-57
2021/10/19 11:20:21;;;;;;;4.18;3.85;;;16.00;99.90;;;;;;4981420;28;20258;-57
2021/10/19 11:22:50;;;;;;;6.78;3.50;;;16.30;99.90;;;;;;4978840;28;20188;-56
2021/10/19 11:25:17;;;;;;;4.05;3.50;;;16.30;99.90;;;;;;4982475;28;20603;-58
2021/10/19 11:27:44;;;;;;;4.00;3.58;;;16.20;99.90;;;;;;4986257;28;20183;-56
2021/10/19 11:30:11;;;;;;;4.20;3.70;;;16.30;99.90;;;;;;4981962;28;20301;-57
2021/10/19 11:32:38;;;;;;;3.47;2.97;;;16.50;99.90;;;;;;4990853;28;20179;-58
2021/10/19 11:35:05;;;;;;;3.95;3.40;;;16.80;99.90;;;;;;4985428;28;20191;-55
2021/10/19 11:37:31;;;;;;;4.45;3.30;;;16.70;99.90;;;;;;4988641;28;20226;-56
2021/10/19 11:40:11;;;;;;;3.40;3.10;;;16.60;99.90;;;;;;4978683;28;20597;-55
2021/10/19 11:42:48;;;;;;;6.03;5.05;;;16.80;99.90;;;;;;4980960;28;20190;-57
2021/10/19 11:45:18;;;;;;;3.90;3.60;;;16.70;99.90;;;;;;4990106;28;20184;-56
2021/10/19 11:47:49;;;;;;;3.63;2.88;;;16.50;99.90;;;;;;4980515;28;20191;-55
2021/10/19 11:50:17;;;;;;;3.50;3.00;;;16.60;99.90;;;;;;4978637;28;20208;-56
2021/10/19 11:52:46;;;;;;;3.53;3.13;;;16.50;99.90;;;;;;4985697;28;20246;-56
2021/10/19 11:55:16;;;;;;;5.15;3.70;;;16.60;99.90;;;;;;4972745;28;20183;-56
2021/10/19 11:57:46;;;;;;;3.50;3.20;;;16.80;99.90;;;;;;4970478;28;20786;-56
2021/10/19 12:00:12;;;;;;;6.15;4.85;;;16.90;99.90;;;;;;4973669;28;20215;-56
2021/10/19 12:02:57;;;;;;;4.00;3.57;;;17.00;99.90;;;;;;4984819;28;20572;-56
2021/10/19 12:05:28;;;;;;;4.40;4.00;;;17.00;99.90;;;;;;4978583;28;20198;-57
2021/10/19 12:07:57;;;;;;;5.55;3.55;;;17.00;99.90;;;;;;4990500;28;20516;-57
2021/10/19 12:10:29;;;;;;;3.63;3.33;;;17.10;99.90;;;;;;4988988;28;20199;-57
2021/10/19 12:12:59;;;;;;;3.22;2.92;;;17.00;99.90;;;;;;4986343;28;20219;-56
2021/10/19 12:15:28;;;;;;;4.40;3.60;;;17.10;99.90;;;;;;4980273;28;20180;-57
2021/10/19 12:18:02;;;;;;;4.28;3.55;;;17.30;99.90;;;;;;4975154;28;20274;-57
2021/10/19 12:20:34;;;;;;;3.63;3.13;;;16.80;99.90;;;;;;4988655;28;20214;-56
2021/10/19 12:23:08;;;;;;;4.18;3.78;;;17.00;99.90;;;;;;4990408;28;20253;-56
2021/10/19 12:25:48;;;;;;;3.00;2.53;;;17.10;99.90;;;;;;4975975;28;20193;-57
2021/10/19 12:28:26;;;;;;;3.65;3.35;;;16.80;99.90;;;;;;4990174;28;20190;-57
2021/10/19 12:30:53;;;;;;;4.60;3.22;;;17.00;99.90;;;;;;4987111;28;20269;-58
2021/10/19 12:33:23;;;;;;;3.80;3.50;;;16.90;99.90;;;;;;4978916;28;20207;-55
2021/10/19 12:36:09;;;;;;;3.13;2.80;;;17.00;99.90;;;;;;4979325;28;20188;-55
2021/10/19 12:38:41;;;;;;;5.82;4.15;;;16.90;99.90;;;;;;4972774;28;20228;-56